KSYI/SYI METAR and TAF weather

Enter ICAO airport designator
Station Type Date Time Source
KSYI METAR 2021/05/10 00:35 UTC NOAA

KSYI 100035Z AUTO 27013KT 2 1/2SM BR FEW002 SCT014 BKN019 19/19 A2986 RMK A01


Station Type Date Time Source
KSYI Decoded METAR 2021/05/10 00:35 UTC NOAA

Station name not available
May 09, 2021 - 08:35 PM EDT / 2021.05.10 0035 UTC
Wind: from the W (270 degrees) at 15 MPH (13 KT):0
Visibility: 2 1/2 mile(s):0
Sky conditions: mostly cloudy
Weather: mist
Temperature: 66 F (19 C)
Dew Point: 66 F (19 C)
Relative Humidity: 100%
Pressure (altimeter): 29.86 in. Hg (1011 hPa)
ob: KSYI 100035Z AUTO 27013KT 2 1/2SM BR FEW002 SCT014 BKN019 19/19 A2986 RMK A01
cycle: 0

Station Type Date Time Source
KSYI TAF UTC NOAA

Error!

Example: see airport list